sensor_id;sensor_type;location;lat;lon;timestamp;P1;durP1;ratioP1;P2;durP2;ratioP2
54807;SDS011;40708;50.364;7.550;2024-01-07T00:02:06;25.30;;;16.37;;
54807;SDS011;40708;50.364;7.550;2024-01-07T00:04:31;25.67;;;16.93;;
54807;SDS011;40708;50.364;7.550;2024-01-07T00:06:59;28.37;;;17.23;;
54807;SDS011;40708;50.364;7.550;2024-01-07T00:09:24;25.88;;;17.33;;
54807;SDS011;40708;50.364;7.550;2024-01-07T00:11:49;28.10;;;18.25;;
54807;SDS011;40708;50.364;7.550;2024-01-07T00:14:15;27.53;;;17.90;;
54807;SDS011;40708;50.364;7.550;2024-01-07T00:16:41;29.47;;;18.77;;
54807;SDS011;40708;50.364;7.550;2024-01-07T00:19:06;25.10;;;16.97;;
54807;SDS011;40708;50.364;7.550;2024-01-07T00:21:31;24.45;;;15.65;;
54807;SDS011;40708;50.364;7.550;2024-01-07T00:23:57;24.27;;;16.43;;
54807;SDS011;40708;50.364;7.550;2024-01-07T00:26:22;27.37;;;16.60;;
54807;SDS011;40708;50.364;7.550;2024-01-07T00:28:47;26.73;;;18.13;;
54807;SDS011;40708;50.364;7.550;2024-01-07T00:31:12;28.70;;;18.48;;
54807;SDS011;40708;50.364;7.550;2024-01-07T00:33:37;23.07;;;16.13;;
54807;SDS011;40708;50.364;7.550;2024-01-07T00:36:02;25.87;;;18.20;;
54807;SDS011;40708;50.364;7.550;2024-01-07T00:38:28;30.70;;;20.67;;
54807;SDS011;40708;50.364;7.550;2024-01-07T00:40:53;24.05;;;17.40;;
54807;SDS011;40708;50.364;7.550;2024-01-07T00:43:18;26.10;;;17.10;;
54807;SDS011;40708;50.364;7.550;2024-01-07T00:45:43;27.40;;;18.20;;
54807;SDS011;40708;50.364;7.550;2024-01-07T00:48:08;28.13;;;18.00;;
54807;SDS011;40708;50.364;7.550;2024-01-07T00:50:34;28.37;;;18.70;;
54807;SDS011;40708;50.364;7.550;2024-01-07T00:52:59;26.10;;;17.83;;
54807;SDS011;40708;50.364;7.550;2024-01-07T00:55:24;30.80;;;19.77;;
54807;SDS011;40708;50.364;7.550;2024-01-07T00:57:49;30.10;;;18.93;;
54807;SDS011;40708;50.364;7.550;2024-01-07T01:00:15;30.93;;;19.03;;
54807;SDS011;40708;50.364;7.550;2024-01-07T01:02:40;28.67;;;19.67;;
54807;SDS011;40708;50.364;7.550;2024-01-07T01:05:05;27.83;;;17.40;;
54807;SDS011;40708;50.364;7.550;2024-01-07T01:07:31;26.73;;;18.03;;
54807;SDS011;40708;50.364;7.550;2024-01-07T01:09:56;28.83;;;18.38;;
54807;SDS011;40708;50.364;7.550;2024-01-07T01:12:21;30.10;;;17.17;;
54807;SDS011;40708;50.364;7.550;2024-01-07T01:14:46;26.70;;;16.83;;
54807;SDS011;40708;50.364;7.550;2024-01-07T01:17:11;27.97;;;17.30;;
54807;SDS011;40708;50.364;7.550;2024-01-07T01:19:36;28.47;;;16.90;;
54807;SDS011;40708;50.364;7.550;2024-01-07T01:22:02;28.58;;;17.42;;
54807;SDS011;40708;50.364;7.550;2024-01-07T01:24:27;25.73;;;15.93;;
54807;SDS011;40708;50.364;7.550;2024-01-07T01:26:52;30.10;;;16.87;;
54807;SDS011;40708;50.364;7.550;2024-01-07T01:29:17;26.90;;;17.53;;
54807;SDS011;40708;50.364;7.550;2024-01-07T01:31:42;31.73;;;19.38;;
54807;SDS011;40708;50.364;7.550;2024-01-07T01:34:07;32.67;;;19.20;;
54807;SDS011;40708;50.364;7.550;2024-01-07T01:36:33;34.10;;;19.20;;
54807;SDS011;40708;50.364;7.550;2024-01-07T01:38:58;31.40;;;18.20;;
54807;SDS011;40708;50.364;7.550;2024-01-07T01:41:23;30.63;;;18.80;;
54807;SDS011;40708;50.364;7.550;2024-01-07T01:43:48;32.23;;;18.67;;
54807;SDS011;40708;50.364;7.550;2024-01-07T01:46:13;31.87;;;19.10;;
54807;SDS011;40708;50.364;7.550;2024-01-07T01:48:39;31.40;;;18.97;;
54807;SDS011;40708;50.364;7.550;2024-01-07T01:51:04;28.23;;;17.70;;
54807;SDS011;40708;50.364;7.550;2024-01-07T01:53:29;32.87;;;19.50;;
54807;SDS011;40708;50.364;7.550;2024-01-07T01:55:57;29.83;;;18.07;;
54807;SDS011;40708;50.364;7.550;2024-01-07T01:58:22;32.90;;;18.80;;
54807;SDS011;40708;50.364;7.550;2024-01-07T02:00:48;28.33;;;16.93;;
54807;SDS011;40708;50.364;7.550;2024-01-07T02:03:13;33.33;;;18.47;;
54807;SDS011;40708;50.364;7.550;2024-01-07T02:05:38;28.90;;;18.13;;
54807;SDS011;40708;50.364;7.550;2024-01-07T02:08:03;33.30;;;18.63;;
54807;SDS011;40708;50.364;7.550;2024-01-07T02:10:29;35.37;;;20.67;;
54807;SDS011;40708;50.364;7.550;2024-01-07T02:12:59;33.00;;;19.70;;
54807;SDS011;40708;50.364;7.550;2024-01-07T02:15:24;29.67;;;17.70;;
54807;SDS011;40708;50.364;7.550;2024-01-07T02:17:49;33.30;;;19.40;;
54807;SDS011;40708;50.364;7.550;2024-01-07T02:20:15;31.43;;;18.40;;
54807;SDS011;40708;50.364;7.550;2024-01-07T02:22:41;31.77;;;18.93;;
54807;SDS011;40708;50.364;7.550;2024-01-07T02:25:06;30.88;;;18.08;;
54807;SDS011;40708;50.364;7.550;2024-01-07T02:27:31;31.53;;;17.63;;
54807;SDS011;40708;50.364;7.550;2024-01-07T02:29:56;33.33;;;18.40;;
54807;SDS011;40708;50.364;7.550;2024-01-07T02:32:22;30.30;;;18.70;;
54807;SDS011;40708;50.364;7.550;2024-01-07T02:34:47;34.13;;;19.63;;
54807;SDS011;40708;50.364;7.550;2024-01-07T02:37:12;34.13;;;19.47;;
54807;SDS011;40708;50.364;7.550;2024-01-07T02:39:37;31.98;;;19.15;;
54807;SDS011;40708;50.364;7.550;2024-01-07T02:42:02;29.13;;;17.77;;
54807;SDS011;40708;50.364;7.550;2024-01-07T02:44:28;29.80;;;18.37;;
54807;SDS011;40708;50.364;7.550;2024-01-07T02:46:53;27.70;;;17.40;;
54807;SDS011;40708;50.364;7.550;2024-01-07T02:49:18;31.52;;;16.83;;
54807;SDS011;40708;50.364;7.550;2024-01-07T02:51:43;31.40;;;18.57;;
54807;SDS011;40708;50.364;7.550;2024-01-07T02:54:10;29.57;;;18.27;;
54807;SDS011;40708;50.364;7.550;2024-01-07T02:56:35;30.33;;;18.00;;
54807;SDS011;40708;50.364;7.550;2024-01-07T02:59:01;27.58;;;17.13;;
54807;SDS011;40708;50.364;7.550;2024-01-07T03:01:26;30.73;;;18.17;;
54807;SDS011;40708;50.364;7.550;2024-01-07T03:03:51;28.65;;;18.40;;
54807;SDS011;40708;50.364;7.550;2024-01-07T03:06:16;28.77;;;18.13;;
54807;SDS011;40708;50.364;7.550;2024-01-07T03:08:42;33.05;;;19.92;;
54807;SDS011;40708;50.364;7.550;2024-01-07T03:11:07;31.03;;;17.63;;
54807;SDS011;40708;50.364;7.550;2024-01-07T03:13:32;27.67;;;16.95;;
54807;SDS011;40708;50.364;7.550;2024-01-07T03:15:58;30.97;;;17.53;;
54807;SDS011;40708;50.364;7.550;2024-01-07T03:18:23;29.27;;;16.83;;
54807;SDS011;40708;50.364;7.550;2024-01-07T03:20:48;30.23;;;18.02;;
54807;SDS011;40708;50.364;7.550;2024-01-07T03:23:13;29.43;;;18.60;;
54807;SDS011;40708;50.364;7.550;2024-01-07T03:25:39;28.17;;;18.10;;
54807;SDS011;40708;50.364;7.550;2024-01-07T03:28:04;30.43;;;18.23;;
54807;SDS011;40708;50.364;7.550;2024-01-07T03:30:29;26.90;;;16.57;;
54807;SDS011;40708;50.364;7.550;2024-01-07T03:32:54;31.30;;;18.38;;
54807;SDS011;40708;50.364;7.550;2024-01-07T03:35:19;28.17;;;15.73;;
54807;SDS011;40708;50.364;7.550;2024-01-07T03:37:44;27.05;;;15.48;;
54807;SDS011;40708;50.364;7.550;2024-01-07T03:40:10;27.50;;;17.07;;
54807;SDS011;40708;50.364;7.550;2024-01-07T03:42:36;29.17;;;16.53;;
54807;SDS011;40708;50.364;7.550;2024-01-07T03:45:01;26.73;;;14.77;;
54807;SDS011;40708;50.364;7.550;2024-01-07T03:47:27;26.43;;;16.43;;
54807;SDS011;40708;50.364;7.550;2024-01-07T03:49:52;24.83;;;15.73;;
54807;SDS011;40708;50.364;7.550;2024-01-07T03:52:17;26.92;;;16.15;;
54807;SDS011;40708;50.364;7.550;2024-01-07T03:54:42;21.95;;;13.57;;
54807;SDS011;40708;50.364;7.550;2024-01-07T03:57:07;20.70;;;13.63;;
54807;SDS011;40708;50.364;7.550;2024-01-07T03:59:32;20.42;;;13.85;;
54807;SDS011;40708;50.364;7.550;2024-01-07T04:01:57;19.77;;;14.10;;
54807;SDS011;40708;50.364;7.550;2024-01-07T04:04:23;21.45;;;14.48;;
54807;SDS011;40708;50.364;7.550;2024-01-07T04:06:48;18.73;;;12.73;;
54807;SDS011;40708;50.364;7.550;2024-01-07T04:09:13;19.37;;;12.77;;
54807;SDS011;40708;50.364;7.550;2024-01-07T04:11:39;16.77;;;12.27;;
54807;SDS011;40708;50.364;7.550;2024-01-07T04:14:04;17.90;;;12.90;;
54807;SDS011;40708;50.364;7.550;2024-01-07T04:16:29;16.30;;;11.50;;
54807;SDS011;40708;50.364;7.550;2024-01-07T04:18:54;17.63;;;11.73;;
54807;SDS011;40708;50.364;7.550;2024-01-07T04:21:20;15.77;;;11.97;;
54807;SDS011;40708;50.364;7.550;2024-01-07T04:23:45;13.67;;;9.63;;
54807;SDS011;40708;50.364;7.550;2024-01-07T04:26:10;16.27;;;11.07;;
54807;SDS011;40708;50.364;7.550;2024-01-07T04:28:37;15.33;;;10.90;;
54807;SDS011;40708;50.364;7.550;2024-01-07T04:31:03;14.53;;;9.97;;
54807;SDS011;40708;50.364;7.550;2024-01-07T04:33:28;15.90;;;10.37;;
54807;SDS011;40708;50.364;7.550;2024-01-07T04:35:53;13.47;;;8.90;;
54807;SDS011;40708;50.364;7.550;2024-01-07T04:38:23;12.43;;;8.87;;
54807;SDS011;40708;50.364;7.550;2024-01-07T04:40:48;12.47;;;9.20;;
54807;SDS011;40708;50.364;7.550;2024-01-07T04:43:13;11.63;;;8.57;;
54807;SDS011;40708;50.364;7.550;2024-01-07T04:45:38;11.60;;;8.32;;
54807;SDS011;40708;50.364;7.550;2024-01-07T04:48:03;11.02;;;8.15;;
54807;SDS011;40708;50.364;7.550;2024-01-07T04:50:28;9.57;;;7.50;;
54807;SDS011;40708;50.364;7.550;2024-01-07T04:52:54;10.10;;;7.30;;
54807;SDS011;40708;50.364;7.550;2024-01-07T04:55:19;9.65;;;7.43;;
54807;SDS011;40708;50.364;7.550;2024-01-07T04:57:44;10.52;;;7.57;;
54807;SDS011;40708;50.364;7.550;2024-01-07T05:00:10;9.77;;;7.33;;
54807;SDS011;40708;50.364;7.550;2024-01-07T05:02:35;9.97;;;7.73;;
54807;SDS011;40708;50.364;7.550;2024-01-07T05:05:00;10.87;;;7.23;;
54807;SDS011;40708;50.364;7.550;2024-01-07T05:07:25;11.53;;;7.77;;
54807;SDS011;40708;50.364;7.550;2024-01-07T05:09:50;9.27;;;6.88;;
54807;SDS011;40708;50.364;7.550;2024-01-07T05:12:16;8.18;;;6.88;;
54807;SDS011;40708;50.364;7.550;2024-01-07T05:14:41;7.63;;;6.30;;
54807;SDS011;40708;50.364;7.550;2024-01-07T05:17:07;9.50;;;6.50;;
54807;SDS011;40708;50.364;7.550;2024-01-07T05:19:33;8.83;;;6.87;;
54807;SDS011;40708;50.364;7.550;2024-01-07T05:21:58;9.30;;;7.13;;
54807;SDS011;40708;50.364;7.550;2024-01-07T05:24:23;9.47;;;7.43;;
54807;SDS011;40708;50.364;7.550;2024-01-07T05:26:49;8.65;;;6.18;;
54807;SDS011;40708;50.364;7.550;2024-01-07T05:29:14;9.23;;;7.37;;
54807;SDS011;40708;50.364;7.550;2024-01-07T05:31:39;9.57;;;7.10;;
54807;SDS011;40708;50.364;7.550;2024-01-07T05:34:04;11.33;;;7.37;;
54807;SDS011;40708;50.364;7.550;2024-01-07T05:36:29;8.52;;;6.30;;
54807;SDS011;40708;50.364;7.550;2024-01-07T05:38:55;8.65;;;7.13;;
54807;SDS011;40708;50.364;7.550;2024-01-07T05:41:20;8.40;;;6.55;;
54807;SDS011;40708;50.364;7.550;2024-01-07T05:43:46;9.30;;;7.23;;
54807;SDS011;40708;50.364;7.550;2024-01-07T05:46:11;10.03;;;7.63;;
54807;SDS011;40708;50.364;7.550;2024-01-07T05:48:55;9.17;;;7.37;;
54807;SDS011;40708;50.364;7.550;2024-01-07T05:51:20;8.30;;;6.83;;
54807;SDS011;40708;50.364;7.550;2024-01-07T05:53:46;9.40;;;7.18;;
54807;SDS011;40708;50.364;7.550;2024-01-07T05:56:11;8.07;;;6.67;;
54807;SDS011;40708;50.364;7.550;2024-01-07T05:58:36;7.83;;;6.33;;
54807;SDS011;40708;50.364;7.550;2024-01-07T06:01:01;7.60;;;6.57;;
54807;SDS011;40708;50.364;7.550;2024-01-07T06:03:27;7.63;;;5.87;;
54807;SDS011;40708;50.364;7.550;2024-01-07T06:05:52;7.77;;;6.40;;
54807;SDS011;40708;50.364;7.550;2024-01-07T06:08:17;7.67;;;5.73;;
54807;SDS011;40708;50.364;7.550;2024-01-07T06:10:42;7.53;;;5.75;;
54807;SDS011;40708;50.364;7.550;2024-01-07T06:13:07;7.13;;;5.90;;
54807;SDS011;40708;50.364;7.550;2024-01-07T06:15:33;6.85;;;5.63;;
54807;SDS011;40708;50.364;7.550;2024-01-07T06:17:58;8.48;;;5.95;;
54807;SDS011;40708;50.364;7.550;2024-01-07T06:20:23;7.47;;;5.93;;
54807;SDS011;40708;50.364;7.550;2024-01-07T06:22:48;7.07;;;6.07;;
54807;SDS011;40708;50.364;7.550;2024-01-07T06:25:14;6.90;;;5.83;;
54807;SDS011;40708;50.364;7.550;2024-01-07T06:27:39;8.33;;;5.93;;
54807;SDS011;40708;50.364;7.550;2024-01-07T06:30:05;6.47;;;5.20;;
54807;SDS011;40708;50.364;7.550;2024-01-07T06:32:30;6.00;;;5.33;;
54807;SDS011;40708;50.364;7.550;2024-01-07T06:34:57;6.70;;;6.00;;
54807;SDS011;40708;50.364;7.550;2024-01-07T06:37:22;6.77;;;5.83;;
54807;SDS011;40708;50.364;7.550;2024-01-07T06:39:47;6.70;;;5.57;;
54807;SDS011;40708;50.364;7.550;2024-01-07T06:42:12;6.80;;;6.10;;
54807;SDS011;40708;50.364;7.550;2024-01-07T06:44:37;6.67;;;5.50;;
54807;SDS011;40708;50.364;7.550;2024-01-07T06:47:03;7.60;;;5.33;;
54807;SDS011;40708;50.364;7.550;2024-01-07T06:49:28;6.70;;;5.83;;
54807;SDS011;40708;50.364;7.550;2024-01-07T06:51:53;6.40;;;5.63;;
54807;SDS011;40708;50.364;7.550;2024-01-07T06:54:18;7.97;;;6.10;;
54807;SDS011;40708;50.364;7.550;2024-01-07T06:56:43;7.20;;;6.28;;
54807;SDS011;40708;50.364;7.550;2024-01-07T06:59:08;7.50;;;6.13;;
54807;SDS011;40708;50.364;7.550;2024-01-07T07:01:35;8.13;;;6.53;;
54807;SDS011;40708;50.364;7.550;2024-01-07T07:04:00;7.87;;;7.07;;
54807;SDS011;40708;50.364;7.550;2024-01-07T07:06:25;7.77;;;6.60;;
54807;SDS011;40708;50.364;7.550;2024-01-07T07:08:50;7.77;;;6.53;;
54807;SDS011;40708;50.364;7.550;2024-01-07T07:11:16;7.87;;;7.07;;
54807;SDS011;40708;50.364;7.550;2024-01-07T07:13:41;8.60;;;7.03;;
54807;SDS011;40708;50.364;7.550;2024-01-07T07:16:06;8.10;;;6.73;;
54807;SDS011;40708;50.364;7.550;2024-01-07T07:18:32;9.13;;;7.50;;
54807;SDS011;40708;50.364;7.550;2024-01-07T07:20:58;7.73;;;6.70;;
54807;SDS011;40708;50.364;7.550;2024-01-07T07:23:23;9.18;;;7.43;;
54807;SDS011;40708;50.364;7.550;2024-01-07T07:25:48;9.98;;;8.18;;
54807;SDS011;40708;50.364;7.550;2024-01-07T07:28:13;10.00;;;8.37;;
54807;SDS011;40708;50.364;7.550;2024-01-07T07:30:38;9.07;;;8.03;;
54807;SDS011;40708;50.364;7.550;2024-01-07T07:33:03;9.67;;;8.23;;
54807;SDS011;40708;50.364;7.550;2024-01-07T07:35:29;10.97;;;9.03;;
54807;SDS011;40708;50.364;7.550;2024-01-07T07:37:54;9.88;;;8.23;;
54807;SDS011;40708;50.364;7.550;2024-01-07T07:40:20;10.97;;;8.57;;
54807;SDS011;40708;50.364;7.550;2024-01-07T07:42:45;10.73;;;8.80;;
54807;SDS011;40708;50.364;7.550;2024-01-07T07:45:10;10.98;;;9.25;;
54807;SDS011;40708;50.364;7.550;2024-01-07T07:47:36;10.60;;;8.87;;
54807;SDS011;40708;50.364;7.550;2024-01-07T07:50:01;12.97;;;9.20;;
54807;SDS011;40708;50.364;7.550;2024-01-07T07:52:27;10.97;;;9.17;;
54807;SDS011;40708;50.364;7.550;2024-01-07T07:54:52;11.17;;;9.10;;
54807;SDS011;40708;50.364;7.550;2024-01-07T07:57:18;10.50;;;8.50;;
54807;SDS011;40708;50.364;7.550;2024-01-07T07:59:45;12.93;;;9.00;;
54807;SDS011;40708;50.364;7.550;2024-01-07T08:02:10;12.27;;;9.07;;
54807;SDS011;40708;50.364;7.550;2024-01-07T08:04:35;11.80;;;10.03;;
54807;SDS011;40708;50.364;7.550;2024-01-07T08:07:01;12.43;;;10.40;;
54807;SDS011;40708;50.364;7.550;2024-01-07T08:09:27;14.67;;;10.40;;
54807;SDS011;40708;50.364;7.550;2024-01-07T08:11:52;12.73;;;10.43;;
54807;SDS011;40708;50.364;7.550;2024-01-07T08:14:17;12.25;;;9.90;;
54807;SDS011;40708;50.364;7.550;2024-01-07T08:16:42;14.57;;;11.23;;
54807;SDS011;40708;50.364;7.550;2024-01-07T08:19:07;14.77;;;11.27;;
54807;SDS011;40708;50.364;7.550;2024-01-07T08:21:32;15.68;;;11.90;;
54807;SDS011;40708;50.364;7.550;2024-01-07T08:23:58;16.48;;;12.10;;
54807;SDS011;40708;50.364;7.550;2024-01-07T08:26:23;16.27;;;12.40;;
54807;SDS011;40708;50.364;7.550;2024-01-07T08:28:49;13.57;;;10.67;;
54807;SDS011;40708;50.364;7.550;2024-01-07T08:31:14;14.93;;;12.02;;
54807;SDS011;40708;50.364;7.550;2024-01-07T08:33:39;16.00;;;11.40;;
54807;SDS011;40708;50.364;7.550;2024-01-07T08:36:04;17.27;;;13.33;;
54807;SDS011;40708;50.364;7.550;2024-01-07T08:38:29;17.33;;;13.00;;
54807;SDS011;40708;50.364;7.550;2024-01-07T08:40:55;15.93;;;11.83;;
54807;SDS011;40708;50.364;7.550;2024-01-07T08:43:20;18.27;;;13.10;;
54807;SDS011;40708;50.364;7.550;2024-01-07T08:45:45;16.50;;;12.73;;
54807;SDS011;40708;50.364;7.550;2024-01-07T08:48:10;17.20;;;13.40;;
54807;SDS011;40708;50.364;7.550;2024-01-07T08:50:37;19.73;;;14.10;;
54807;SDS011;40708;50.364;7.550;2024-01-07T08:53:02;17.52;;;13.10;;
54807;SDS011;40708;50.364;7.550;2024-01-07T08:55:27;16.90;;;13.07;;
54807;SDS011;40708;50.364;7.550;2024-01-07T08:57:53;18.67;;;13.40;;
54807;SDS011;40708;50.364;7.550;2024-01-07T09:00:18;17.20;;;13.43;;
54807;SDS011;40708;50.364;7.550;2024-01-07T09:02:43;18.73;;;13.27;;
54807;SDS011;40708;50.364;7.550;2024-01-07T09:05:08;21.70;;;15.67;;
54807;SDS011;40708;50.364;7.550;2024-01-07T09:07:33;21.33;;;15.77;;
54807;SDS011;40708;50.364;7.550;2024-01-07T09:09:59;20.80;;;14.57;;
54807;SDS011;40708;50.364;7.550;2024-01-07T09:12:26;20.27;;;14.13;;
54807;SDS011;40708;50.364;7.550;2024-01-07T09:14:52;19.23;;;13.80;;
54807;SDS011;40708;50.364;7.550;2024-01-07T09:17:17;20.43;;;15.03;;
54807;SDS011;40708;50.364;7.550;2024-01-07T09:19:43;19.07;;;14.47;;
54807;SDS011;40708;50.364;7.550;2024-01-07T09:22:08;19.88;;;14.30;;
54807;SDS011;40708;50.364;7.550;2024-01-07T09:24:34;20.20;;;14.68;;
54807;SDS011;40708;50.364;7.550;2024-01-07T09:26:59;19.52;;;14.38;;
54807;SDS011;40708;50.364;7.550;2024-01-07T09:29:24;19.70;;;14.43;;
54807;SDS011;40708;50.364;7.550;2024-01-07T09:31:49;20.40;;;14.35;;
54807;SDS011;40708;50.364;7.550;2024-01-07T09:34:14;19.38;;;14.75;;
54807;SDS011;40708;50.364;7.550;2024-01-07T09:36:39;19.05;;;14.68;;
54807;SDS011;40708;50.364;7.550;2024-01-07T09:39:05;18.77;;;14.60;;
54807;SDS011;40708;50.364;7.550;2024-01-07T09:41:31;19.73;;;14.07;;
54807;SDS011;40708;50.364;7.550;2024-01-07T09:43:56;20.13;;;14.20;;
54807;SDS011;40708;50.364;7.550;2024-01-07T09:46:23;17.90;;;14.27;;
54807;SDS011;40708;50.364;7.550;2024-01-07T09:48:49;19.47;;;14.03;;
54807;SDS011;40708;50.364;7.550;2024-01-07T09:51:14;20.87;;;14.20;;
54807;SDS011;40708;50.364;7.550;2024-01-07T09:53:40;17.33;;;13.20;;
54807;SDS011;40708;50.364;7.550;2024-01-07T09:56:07;19.80;;;13.55;;
54807;SDS011;40708;50.364;7.550;2024-01-07T09:58:36;20.43;;;15.37;;
54807;SDS011;40708;50.364;7.550;2024-01-07T10:01:01;21.57;;;14.60;;
54807;SDS011;40708;50.364;7.550;2024-01-07T10:03:29;22.97;;;15.87;;
54807;SDS011;40708;50.364;7.550;2024-01-07T10:05:54;20.07;;;14.90;;
54807;SDS011;40708;50.364;7.550;2024-01-07T10:08:19;18.57;;;14.40;;
54807;SDS011;40708;50.364;7.550;2024-01-07T10:10:45;21.40;;;14.93;;
54807;SDS011;40708;50.364;7.550;2024-01-07T10:13:10;18.57;;;14.10;;
54807;SDS011;40708;50.364;7.550;2024-01-07T10:15:35;21.40;;;15.37;;
54807;SDS011;40708;50.364;7.550;2024-01-07T10:18:04;21.63;;;14.73;;
54807;SDS011;40708;50.364;7.550;2024-01-07T10:20:30;20.37;;;15.00;;
54807;SDS011;40708;50.364;7.550;2024-01-07T10:22:56;21.50;;;14.27;;
54807;SDS011;40708;50.364;7.550;2024-01-07T10:25:21;19.17;;;14.40;;
54807;SDS011;40708;50.364;7.550;2024-01-07T10:27:46;21.53;;;14.90;;
54807;SDS011;40708;50.364;7.550;2024-01-07T10:30:11;19.10;;;14.30;;
54807;SDS011;40708;50.364;7.550;2024-01-07T10:32:37;21.50;;;14.40;;
54807;SDS011;40708;50.364;7.550;2024-01-07T10:35:03;20.80;;;14.80;;
54807;SDS011;40708;50.364;7.550;2024-01-07T10:37:28;19.37;;;15.43;;
54807;SDS011;40708;50.364;7.550;2024-01-07T10:39:54;21.73;;;15.67;;
54807;SDS011;40708;50.364;7.550;2024-01-07T10:42:21;20.53;;;16.83;;
54807;SDS011;40708;50.364;7.550;2024-01-07T10:44:47;17.93;;;13.70;;
54807;SDS011;40708;50.364;7.550;2024-01-07T10:47:12;20.23;;;14.77;;
54807;SDS011;40708;50.364;7.550;2024-01-07T10:49:38;21.37;;;14.17;;
54807;SDS011;40708;50.364;7.550;2024-01-07T10:52:05;17.27;;;13.67;;
54807;SDS011;40708;50.364;7.550;2024-01-07T10:54:31;21.97;;;15.10;;
54807;SDS011;40708;50.364;7.550;2024-01-07T10:56:58;19.27;;;13.40;;
54807;SDS011;40708;50.364;7.550;2024-01-07T10:59:24;18.93;;;14.27;;
54807;SDS011;40708;50.364;7.550;2024-01-07T11:01:50;19.80;;;14.93;;
54807;SDS011;40708;50.364;7.550;2024-01-07T11:04:23;16.77;;;12.60;;
54807;SDS011;40708;50.364;7.550;2024-01-07T11:06:51;17.27;;;13.03;;
54807;SDS011;40708;50.364;7.550;2024-01-07T11:11:44;17.77;;;12.67;;
54807;SDS011;40708;50.364;7.550;2024-01-07T11:16:53;18.53;;;12.63;;
54807;SDS011;40708;50.364;7.550;2024-01-07T11:19:19;15.53;;;12.67;;
54807;SDS011;40708;50.364;7.550;2024-01-07T11:21:45;16.37;;;13.20;;
54807;SDS011;40708;50.364;7.550;2024-01-07T11:24:12;15.33;;;12.77;;
54807;SDS011;40708;50.364;7.550;2024-01-07T11:26:56;11.03;;;9.50;;
54807;SDS011;40708;50.364;7.550;2024-01-07T11:29:26;10.53;;;8.40;;
54807;SDS011;40708;50.364;7.550;2024-01-07T11:31:51;10.65;;;8.65;;
54807;SDS011;40708;50.364;7.550;2024-01-07T11:34:38;8.55;;;7.07;;
54807;SDS011;40708;50.364;7.550;2024-01-07T11:37:03;9.50;;;8.50;;
54807;SDS011;40708;50.364;7.550;2024-01-07T11:39:30;10.00;;;8.53;;
54807;SDS011;40708;50.364;7.550;2024-01-07T11:41:55;9.83;;;8.20;;
54807;SDS011;40708;50.364;7.550;2024-01-07T11:44:21;12.60;;;9.90;;
54807;SDS011;40708;50.364;7.550;2024-01-07T11:46:47;9.70;;;8.70;;
54807;SDS011;40708;50.364;7.550;2024-01-07T11:49:12;9.80;;;8.80;;
54807;SDS011;40708;50.364;7.550;2024-01-07T11:51:37;10.80;;;9.43;;
54807;SDS011;40708;50.364;7.550;2024-01-07T11:54:02;11.00;;;9.63;;
54807;SDS011;40708;50.364;7.550;2024-01-07T11:56:28;12.27;;;9.73;;
54807;SDS011;40708;50.364;7.550;2024-01-07T11:58:53;11.77;;;9.27;;
54807;SDS011;40708;50.364;7.550;2024-01-07T12:01:18;10.83;;;9.73;;
54807;SDS011;40708;50.364;7.550;2024-01-07T12:03:44;13.60;;;10.63;;
54807;SDS011;40708;50.364;7.550;2024-01-07T12:06:09;11.77;;;9.47;;
54807;SDS011;40708;50.364;7.550;2024-01-07T12:08:41;10.83;;;9.10;;
54807;SDS011;40708;50.364;7.550;2024-01-07T12:11:07;9.00;;;7.63;;
54807;SDS011;40708;50.364;7.550;2024-01-07T12:13:33;9.97;;;8.17;;
54807;SDS011;40708;50.364;7.550;2024-01-07T12:15:59;9.17;;;8.17;;
54807;SDS011;40708;50.364;7.550;2024-01-07T12:18:24;9.93;;;8.93;;
54807;SDS011;40708;50.364;7.550;2024-01-07T12:20:57;8.90;;;8.00;;
54807;SDS011;40708;50.364;7.550;2024-01-07T12:23:23;8.80;;;6.90;;
54807;SDS011;40708;50.364;7.550;2024-01-07T12:25:48;10.17;;;7.50;;
54807;SDS011;40708;50.364;7.550;2024-01-07T12:28:13;8.23;;;7.30;;
54807;SDS011;40708;50.364;7.550;2024-01-07T12:30:38;8.17;;;6.67;;
54807;SDS011;40708;50.364;7.550;2024-01-07T12:33:04;8.03;;;6.57;;
54807;SDS011;40708;50.364;7.550;2024-01-07T12:35:29;8.20;;;7.03;;
54807;SDS011;40708;50.364;7.550;2024-01-07T12:37:55;9.63;;;6.87;;
54807;SDS011;40708;50.364;7.550;2024-01-07T12:40:21;7.47;;;6.67;;
54807;SDS011;40708;50.364;7.550;2024-01-07T12:42:46;7.70;;;6.40;;
54807;SDS011;40708;50.364;7.550;2024-01-07T12:45:12;7.63;;;6.50;;
54807;SDS011;40708;50.364;7.550;2024-01-07T12:47:41;8.07;;;7.27;;
54807;SDS011;40708;50.364;7.550;2024-01-07T12:50:07;6.60;;;5.90;;
54807;SDS011;40708;50.364;7.550;2024-01-07T12:52:34;7.30;;;6.50;;
54807;SDS011;40708;50.364;7.550;2024-01-07T12:54:59;7.83;;;6.60;;
54807;SDS011;40708;50.364;7.550;2024-01-07T12:57:24;7.33;;;6.53;;
54807;SDS011;40708;50.364;7.550;2024-01-07T12:59:49;7.63;;;6.63;;
54807;SDS011;40708;50.364;7.550;2024-01-07T13:02:15;7.40;;;6.70;;
54807;SDS011;40708;50.364;7.550;2024-01-07T13:04:40;7.23;;;6.20;;
54807;SDS011;40708;50.364;7.550;2024-01-07T13:07:05;8.87;;;7.53;;
54807;SDS011;40708;50.364;7.550;2024-01-07T13:09:30;9.17;;;6.97;;
54807;SDS011;40708;50.364;7.550;2024-01-07T13:11:55;8.50;;;6.93;;
54807;SDS011;40708;50.364;7.550;2024-01-07T13:14:21;8.90;;;7.63;;
54807;SDS011;40708;50.364;7.550;2024-01-07T13:16:46;7.97;;;6.97;;
54807;SDS011;40708;50.364;7.550;2024-01-07T13:19:11;9.87;;;7.80;;
54807;SDS011;40708;50.364;7.550;2024-01-07T13:21:38;8.57;;;7.67;;
54807;SDS011;40708;50.364;7.550;2024-01-07T13:24:03;8.40;;;7.50;;
54807;SDS011;40708;50.364;7.550;2024-01-07T13:26:28;7.40;;;6.50;;
54807;SDS011;40708;50.364;7.550;2024-01-07T13:28:53;8.05;;;7.25;;
54807;SDS011;40708;50.364;7.550;2024-01-07T13:31:19;8.55;;;7.07;;
54807;SDS011;40708;50.364;7.550;2024-01-07T13:33:44;8.80;;;7.23;;
54807;SDS011;40708;50.364;7.550;2024-01-07T13:36:09;9.13;;;7.93;;
54807;SDS011;40708;50.364;7.550;2024-01-07T13:38:36;9.03;;;7.57;;
54807;SDS011;40708;50.364;7.550;2024-01-07T13:41:03;8.67;;;7.70;;
54807;SDS011;40708;50.364;7.550;2024-01-07T13:43:29;8.83;;;7.37;;
54807;SDS011;40708;50.364;7.550;2024-01-07T13:45:54;11.57;;;9.43;;
54807;SDS011;40708;50.364;7.550;2024-01-07T13:48:20;9.33;;;7.57;;
54807;SDS011;40708;50.364;7.550;2024-01-07T13:50:45;7.78;;;6.78;;
54807;SDS011;40708;50.364;7.550;2024-01-07T13:53:12;9.63;;;8.23;;
54807;SDS011;40708;50.364;7.550;2024-01-07T13:55:38;8.50;;;7.20;;
54807;SDS011;40708;50.364;7.550;2024-01-07T13:58:03;8.07;;;7.27;;
54807;SDS011;40708;50.364;7.550;2024-01-07T14:00:29;8.70;;;6.90;;
54807;SDS011;40708;50.364;7.550;2024-01-07T14:02:54;9.73;;;6.70;;
54807;SDS011;40708;50.364;7.550;2024-01-07T14:05:20;8.70;;;6.90;;
54807;SDS011;40708;50.364;7.550;2024-01-07T14:07:45;9.27;;;7.60;;
54807;SDS011;40708;50.364;7.550;2024-01-07T14:10:10;8.70;;;6.72;;
54807;SDS011;40708;50.364;7.550;2024-01-07T14:12:35;8.63;;;7.00;;
54807;SDS011;40708;50.364;7.550;2024-01-07T14:15:00;6.97;;;6.27;;
54807;SDS011;40708;50.364;7.550;2024-01-07T14:17:26;8.47;;;6.80;;
54807;SDS011;40708;50.364;7.550;2024-01-07T14:19:51;7.07;;;5.50;;
54807;SDS011;40708;50.364;7.550;2024-01-07T14:22:18;6.80;;;5.70;;
54807;SDS011;40708;50.364;7.550;2024-01-07T14:24:43;7.40;;;5.87;;
54807;SDS011;40708;50.364;7.550;2024-01-07T14:27:08;6.97;;;5.70;;